Terminal Aerodrome Forecast
Issued by NWS

Home | Current Version | Previous Version | Text Only | Print | Product List | Glossary On
Versions: 1 2 3 4 5 6 7 8 9 10 11 12 13 14 15 16 17 18 19
000
FTUS43 KAPX 192300
TAFMBL
TAF
KMBL 192320Z 2000/2024 20008KT P6SM SCT050 OVC100
     FM200200 22007KT P6SM -SHRA SCT025 OVC050
     FM200700 24006KT 4SM -SHRADZ BR SCT008 OVC015
     FM201400 33009KT 5SM -DZ BR OVC015
      AMD LTD TO CLD VIS AND WIND=

USA.gov is the U.S. government's official web portal to all federal, state and local government web resources and services.